Airfield :
LOGIN :

Register | Disclaimer

   EN    FR    IT 

 










Legend :    VFR   Marginal VFR   IFR   Intensive IFR   Very Intensive IFR
Visi :
Ceiling :
>= 8 km
>= 3000ft
5 to 8 km
1000 to 3000 ft
1500m to 5 km
500 to 1000 ft
800 to 1500m
200 to 500 ft
< 800m
< 200 ft
Symbols :   Thunderstorms  Fog  Heavy snow  Heavy precipitations  Wind > 20 kt
SIGMETs :     Misc.  Thunderstorms  Icing  Turbulence  Mountain Waves  Volcanic Ashes







- Airport Elevation : 609 ft
- IATA code : BJZ


LEBZ - Badajoz

CURRENT METAR :
  • 211500Z 20011KT 160V230 9999 FEW024 25/19 Q1011

EXPIRED METARs :
  • 211400Z 20009KT 170V230 9999 DZ FEW034 23/20 Q1012
  • 211300Z 20012KT 150V230 9999 SCT016 BKN024 BKN038 21/19 Q1013
  • 211247Z 20009KT 150V240 9999 SCT015 BKN022 BKN032 21/19 Q1013 RERA

TAF TAF LEBZ
Valid from the 21 at 12:00 until the 22 at 12:00 UTC


211100Z 2112/2212 24006KT 9999 SCT030 TX24/2115Z TN14/2206Z
TEMPO 2112/2209 4000 RA BKN012
No reported NOTAMs for that airfield.



MET'MAP, your aeronautical weather chart ! - Copyright ORBIFLY December 2007 - Disclaimer

ORBIFLY MET'MAP TEAM :

Programming & Development : Alexandra Zaïnal
Concept & Development : Baudouin d'Aumeries
Co-Development & Prog : Marc-Olivier Méhu
Technical & hardware support : Manuel Goepfert

Contact : metmap@orbifly.com




SOURCES & CREDITS :

   NOAA